createdAt,value
2022-08-12T00:00:00.394Z,1022.91
2022-08-12T00:00:09.824Z,1022.97
2022-08-12T00:00:19.239Z,1022.91
2022-08-12T00:00:28.641Z,1022.97
2022-08-12T00:00:38.101Z,1022.89
2022-08-12T00:00:47.584Z,1022.94
2022-08-12T00:00:56.996Z,1022.94
2022-08-12T00:01:06.427Z,1022.89
2022-08-12T00:01:26.989Z,1022.95
2022-08-12T00:02:02.783Z,1022.98
2022-08-12T00:02:03.981Z,1022.97
2022-08-12T00:02:04.830Z,1022.95
2022-08-12T00:02:05.609Z,1022.98
2022-08-12T00:02:12.417Z,1022.96
2022-08-12T00:02:21.832Z,1022.94
2022-08-12T00:02:31.259Z,1022.94
2022-08-12T00:02:40.926Z,1022.89
2022-08-12T00:02:50.083Z,1022.97
2022-08-12T00:02:59.694Z,1022.89
2022-08-12T00:03:12.276Z,1023.00
2022-08-12T00:03:21.722Z,1022.91
2022-08-12T00:03:31.123Z,1022.92
2022-08-12T00:03:40.605Z,1022.95
2022-08-12T00:03:49.931Z,1022.92
2022-08-12T00:03:59.340Z,1022.93
2022-08-12T00:04:08.760Z,1022.94
2022-08-12T00:04:18.206Z,1022.99
2022-08-12T00:04:27.652Z,1022.93
2022-08-12T00:04:37.142Z,1022.95
2022-08-12T00:04:46.566Z,1022.99
2022-08-12T00:04:56.009Z,1022.95
2022-08-12T00:05:14.880Z,1022.93
2022-08-12T00:05:24.292Z,1022.94
2022-08-12T00:05:33.707Z,1022.94
2022-08-12T00:06:04.140Z,1022.93
2022-08-12T00:06:04.438Z,1022.90
2022-08-12T00:06:04.751Z,1022.96
2022-08-12T00:06:11.490Z,1022.94
2022-08-12T00:06:20.919Z,1022.86
2022-08-12T00:06:30.326Z,1022.93
2022-08-12T00:06:39.754Z,1023.00
2022-08-12T00:06:49.156Z,1022.92
2022-08-12T00:06:58.577Z,1022.96
2022-08-12T00:07:08.011Z,1022.95
2022-08-12T00:07:17.440Z,1022.98
2022-08-12T00:07:26.842Z,1022.95
2022-08-12T00:07:36.254Z,1022.95
2022-08-12T00:07:55.144Z,1022.95
2022-08-12T00:08:04.564Z,1023.00
2022-08-12T00:08:14.032Z,1022.90
2022-08-12T00:08:28.842Z,1022.97
2022-08-12T00:08:35.905Z,1022.98
2022-08-12T00:08:42.363Z,1022.99
2022-08-12T00:08:51.827Z,1022.94
2022-08-12T00:09:01.272Z,1022.95
2022-08-12T00:09:10.700Z,1022.97
2022-08-12T00:09:24.321Z,1022.97
2022-08-12T00:09:29.545Z,1022.94
2022-08-12T00:09:39.015Z,1022.94
2022-08-12T00:09:48.472Z,1022.97
2022-08-12T00:09:57.896Z,1022.92
2022-08-12T00:10:07.291Z,1022.95
2022-08-12T00:10:16.709Z,1022.95
2022-08-12T00:10:26.121Z,1022.95
2022-08-12T00:10:44.988Z,1022.95
2022-08-12T00:10:54.453Z,1023.01
2022-08-12T00:11:09.652Z,1023.00
2022-08-12T00:11:13.288Z,1022.90
2022-08-12T00:11:22.725Z,1022.98
2022-08-12T00:11:32.126Z,1022.91
2022-08-12T00:11:41.562Z,1023.00
2022-08-12T00:11:50.975Z,1022.95
2022-08-12T00:12:00.369Z,1023.02
2022-08-12T00:12:09.782Z,1022.98
2022-08-12T00:12:19.180Z,1022.90
2022-08-12T00:12:28.625Z,1022.95
2022-08-12T00:12:38.195Z,1022.97
2022-08-12T00:12:47.464Z,1022.97
2022-08-12T00:12:56.854Z,1022.94
2022-08-12T00:13:06.276Z,1022.93
2022-08-12T00:13:25.136Z,1022.94
2022-08-12T00:13:34.549Z,1022.94
2022-08-12T00:13:44.001Z,1022.94
2022-08-12T00:13:53.510Z,1022.96
2022-08-12T00:14:02.922Z,1022.99
2022-08-12T00:14:12.322Z,1022.93
2022-08-12T00:14:21.733Z,1022.96
2022-08-12T00:14:31.152Z,1022.99
2022-08-12T00:14:40.579Z,1022.93
2022-08-12T00:14:49.999Z,1022.93
2022-08-12T00:14:59.413Z,1022.87
2022-08-12T00:15:08.835Z,1023.01
2022-08-12T00:15:18.275Z,1022.92
2022-08-12T00:15:27.742Z,1023.00
2022-08-12T00:15:37.155Z,1023.02
2022-08-12T00:15:46.556Z,1022.97
2022-08-12T00:15:55.979Z,1022.91
2022-08-12T00:16:14.828Z,1022.94
2022-08-12T00:16:24.230Z,1022.97
2022-08-12T00:16:33.642Z,1022.96
2022-08-12T00:16:43.052Z,1022.93
2022-08-12T00:16:52.486Z,1022.90
2022-08-12T00:17:01.931Z,1022.90
2022-08-12T00:17:11.381Z,1022.94
2022-08-12T00:17:23.141Z,1022.95
2022-08-12T00:17:30.212Z,1022.95
2022-08-12T00:17:39.648Z,1022.89
2022-08-12T00:17:49.061Z,1022.94
2022-08-12T00:17:58.464Z,1022.89
2022-08-12T00:18:07.952Z,1022.91
2022-08-12T00:18:17.556Z,1022.93
2022-08-12T00:18:26.972Z,1022.91
2022-08-12T00:18:36.372Z,1022.94
2022-08-12T00:18:55.582Z,1022.93
2022-08-12T00:19:05.043Z,1022.97
2022-08-12T00:19:14.473Z,1022.90
2022-08-12T00:19:23.891Z,1022.97
2022-08-12T00:19:33.289Z,1022.93
2022-08-12T00:19:42.685Z,1022.96
2022-08-12T00:19:52.127Z,1022.96
2022-08-12T00:20:01.584Z,1022.98
2022-08-12T00:20:11.023Z,1022.95
2022-08-12T00:20:20.462Z,1022.94
2022-08-12T00:20:30.010Z,1022.99
2022-08-12T00:20:39.338Z,1022.94
2022-08-12T00:20:48.760Z,1022.88
2022-08-12T00:20:58.283Z,1022.92
2022-08-12T00:21:07.699Z,1022.89
2022-08-12T00:21:17.109Z,1022.90
2022-08-12T00:21:26.685Z,1022.92
2022-08-12T00:21:36.068Z,1022.92
2022-08-12T00:21:54.824Z,1022.99
2022-08-12T00:22:04.216Z,1022.94
2022-08-12T00:22:13.597Z,1022.96
2022-08-12T00:22:23.003Z,1022.87
2022-08-12T00:22:32.391Z,1022.99
2022-08-12T00:22:41.972Z,1022.91
2022-08-12T00:22:58.825Z,1022.97
2022-08-12T00:23:00.661Z,1022.98
2022-08-12T00:23:10.075Z,1022.95
2022-08-12T00:23:19.507Z,1022.93
2022-08-12T00:23:28.915Z,1022.98
2022-08-12T00:23:38.401Z,1022.92
2022-08-12T00:23:47.835Z,1022.98
2022-08-12T00:23:57.323Z,1022.93
2022-08-12T00:24:06.781Z,1022.96
2022-08-12T00:24:16.189Z,1022.93
2022-08-12T00:24:35.005Z,1022.97
2022-08-12T00:24:44.427Z,1022.94
2022-08-12T00:24:53.887Z,1022.92
2022-08-12T00:25:03.336Z,1022.94
2022-08-12T00:25:12.740Z,1022.93
2022-08-12T00:26:00.521Z,1022.97
2022-08-12T00:26:01.278Z,1022.98
2022-08-12T00:26:05.593Z,1022.92
2022-08-12T00:26:05.614Z,1022.99
2022-08-12T00:26:21.875Z,1022.90
2022-08-12T00:26:22.373Z,1022.99
2022-08-12T00:26:23.362Z,1022.93
2022-08-12T00:26:28.100Z,1022.94
2022-08-12T00:26:37.521Z,1022.92
2022-08-12T00:26:47.044Z,1022.97
2022-08-12T00:26:56.460Z,1022.92
2022-08-12T00:27:05.871Z,1022.95
2022-08-12T00:27:27.478Z,1022.93
2022-08-12T00:27:43.396Z,1022.95
2022-08-12T00:27:46.357Z,1022.93
2022-08-12T00:27:55.906Z,1022.93
2022-08-12T00:28:05.333Z,1022.92
2022-08-12T00:28:14.738Z,1022.95
2022-08-12T00:28:24.158Z,1022.98
2022-08-12T00:28:33.680Z,1022.96
2022-08-12T00:28:43.084Z,1022.93
2022-08-12T00:28:52.486Z,1022.94
2022-08-12T00:29:01.952Z,1022.97
2022-08-12T00:29:11.384Z,1022.97
2022-08-12T00:29:20.816Z,1022.95
2022-08-12T00:29:30.266Z,1022.96
2022-08-12T00:29:39.722Z,1022.99
2022-08-12T00:29:49.184Z,1023.01
2022-08-12T00:29:58.636Z,1023.00
2022-08-12T00:30:08.082Z,1022.93
2022-08-12T00:30:17.592Z,1023.00
2022-08-12T00:30:27.013Z,1022.96
2022-08-12T00:30:36.418Z,1022.94
2022-08-12T00:30:45.852Z,1022.97
2022-08-12T00:31:04.714Z,1022.95
2022-08-12T00:31:14.496Z,1022.99
2022-08-12T00:31:23.648Z,1023.00
2022-08-12T00:31:33.081Z,1023.00
2022-08-12T00:31:42.565Z,1023.02
2022-08-12T00:31:52.019Z,1022.97
2022-08-12T00:32:01.768Z,1023.00
2022-08-12T00:32:10.885Z,1022.99
2022-08-12T00:32:35.916Z,1022.96
2022-08-12T00:32:36.027Z,1023.03
2022-08-12T00:32:39.158Z,1023.03
2022-08-12T00:32:54.610Z,1022.99
2022-08-12T00:32:58.632Z,1023.01
2022-08-12T00:33:07.562Z,1022.96
2022-08-12T00:33:17.030Z,1023.00
2022-08-12T00:33:32.291Z,1023.00
2022-08-12T00:33:51.511Z,1023.01
2022-08-12T00:33:55.362Z,1022.98
2022-08-12T00:34:05.312Z,1023.00
2022-08-12T00:34:14.230Z,1022.98
2022-08-12T00:34:23.668Z,1023.00
2022-08-12T00:34:33.072Z,1023.03
2022-08-12T00:34:42.529Z,1023.06
2022-08-12T00:34:52.027Z,1023.05
2022-08-12T00:35:01.431Z,1023.03
2022-08-12T00:35:10.849Z,1023.09
2022-08-12T00:35:20.275Z,1022.96
2022-08-12T00:35:36.587Z,1023.05
2022-08-12T00:35:39.176Z,1023.00
2022-08-12T00:35:48.601Z,1023.07
2022-08-12T00:35:58.028Z,1023.06
2022-08-12T00:36:07.451Z,1022.97
2022-08-12T00:36:34.649Z,1023.08
2022-08-12T00:36:35.349Z,1023.06
2022-08-12T00:36:45.171Z,1023.06
2022-08-12T00:36:57.404Z,1023.08
2022-08-12T00:37:08.756Z,1023.04
2022-08-12T00:37:13.556Z,1023.02
2022-08-12T00:37:22.955Z,1023.06
2022-08-12T00:37:32.436Z,1023.04
2022-08-12T00:37:41.824Z,1023.04
2022-08-12T00:37:51.306Z,1022.96
2022-08-12T00:38:00.768Z,1022.97
2022-08-12T00:38:10.189Z,1023.01
2022-08-12T00:38:19.622Z,1023.00
2022-08-12T00:38:29.095Z,1023.03
2022-08-12T00:38:38.507Z,1023.04
2022-08-12T00:38:47.912Z,1022.97
2022-08-12T00:38:57.359Z,1022.99
2022-08-12T00:39:06.787Z,1023.08
2022-08-12T00:39:16.386Z,1023.11
2022-08-12T00:39:35.235Z,1023.12
2022-08-12T00:39:44.630Z,1023.06
2022-08-12T00:39:54.119Z,1023.10
2022-08-12T00:40:04.799Z,1023.07
2022-08-12T00:40:12.943Z,1023.10
2022-08-12T00:40:22.378Z,1023.06
2022-08-12T00:40:31.782Z,1023.07
2022-08-12T00:40:41.202Z,1023.04
2022-08-12T00:40:50.631Z,1023.14
2022-08-12T00:41:00.096Z,1022.98
2022-08-12T00:41:09.715Z,1023.02
2022-08-12T00:41:19.142Z,1023.03
2022-08-12T00:41:28.551Z,1023.05
2022-08-12T00:41:37.974Z,1023.04
2022-08-12T00:41:47.393Z,1023.08
2022-08-12T00:41:56.833Z,1023.05
2022-08-12T00:42:06.266Z,1023.02
2022-08-12T00:42:25.179Z,1023.09
2022-08-12T00:42:37.010Z,1023.17
2022-08-12T00:42:46.492Z,1023.00
2022-08-12T00:42:58.772Z,1023.13
2022-08-12T00:43:08.204Z,1023.14
2022-08-12T00:43:17.632Z,1023.11
2022-08-12T00:43:27.080Z,1023.14
2022-08-12T00:43:36.564Z,1023.13
2022-08-12T00:43:45.939Z,1023.15
2022-08-12T00:43:56.123Z,1023.16
2022-08-12T00:44:04.814Z,1023.13
2022-08-12T00:44:14.246Z,1023.06
2022-08-12T00:44:23.692Z,1023.14
2022-08-12T00:44:33.131Z,1023.20
2022-08-12T00:44:43.242Z,1023.15
2022-08-12T00:44:52.073Z,1023.14
2022-08-12T00:45:01.511Z,1023.12
2022-08-12T00:45:10.951Z,1023.10
2022-08-12T00:45:20.359Z,1023.11
2022-08-12T00:45:29.810Z,1023.17
2022-08-12T00:45:39.286Z,1023.12
2022-08-12T00:45:48.699Z,1023.11
2022-08-12T00:45:58.191Z,1023.12
2022-08-12T00:46:07.623Z,1023.09
2022-08-12T00:46:17.067Z,1023.12
2022-08-12T00:46:26.488Z,1023.16
2022-08-12T00:46:35.908Z,1023.17
2022-08-12T00:46:54.775Z,1023.12
2022-08-12T00:47:04.243Z,1023.20
2022-08-12T00:47:24.247Z,1023.14
2022-08-12T00:47:25.596Z,1023.13
2022-08-12T00:47:32.581Z,1023.17
2022-08-12T00:47:42.038Z,1023.25
2022-08-12T00:47:51.449Z,1023.10
2022-08-12T00:48:00.862Z,1023.20
2022-08-12T00:48:10.345Z,1023.13
2022-08-12T00:48:19.743Z,1023.15
2022-08-12T00:48:29.652Z,1023.13
2022-08-12T00:48:39.070Z,1023.14
2022-08-12T00:48:48.474Z,1023.12
2022-08-12T00:48:57.894Z,1023.08
2022-08-12T00:49:07.359Z,1023.11
2022-08-12T00:49:16.785Z,1023.15
2022-08-12T00:49:26.197Z,1023.13
2022-08-12T00:49:45.111Z,1023.09
2022-08-12T00:49:54.846Z,1023.12
2022-08-12T00:50:04.262Z,1023.16
2022-08-12T00:50:13.699Z,1023.17
2022-08-12T00:50:23.219Z,1023.08
2022-08-12T00:50:32.674Z,1023.13
2022-08-12T00:50:42.120Z,1023.10
2022-08-12T00:50:51.578Z,1023.17
2022-08-12T00:51:01.000Z,1023.10
2022-08-12T00:51:10.420Z,1023.08
2022-08-12T00:51:19.838Z,1023.18
2022-08-12T00:51:29.247Z,1023.13
2022-08-12T00:51:38.667Z,1023.11
2022-08-12T00:51:48.102Z,1023.10
2022-08-12T00:51:57.506Z,1023.08
2022-08-12T00:52:06.940Z,1023.12
2022-08-12T00:52:16.352Z,1023.10
2022-08-12T00:52:35.487Z,1023.13
2022-08-12T00:52:44.702Z,1023.14
2022-08-12T00:52:54.187Z,1023.08
2022-08-12T00:53:03.602Z,1023.13
2022-08-12T00:53:13.029Z,1023.12
2022-08-12T00:53:22.469Z,1023.16
2022-08-12T00:53:31.962Z,1023.06
2022-08-12T00:53:41.430Z,1023.08
2022-08-12T00:53:50.842Z,1023.13
2022-08-12T00:54:00.260Z,1023.08
2022-08-12T00:54:09.654Z,1023.05
2022-08-12T00:54:19.435Z,1023.13
2022-08-12T00:54:28.483Z,1023.08
2022-08-12T00:54:37.914Z,1023.07
2022-08-12T00:54:47.354Z,1023.12
2022-08-12T00:54:56.786Z,1023.13
2022-08-12T00:55:06.214Z,1023.10
2022-08-12T00:55:25.116Z,1023.07
2022-08-12T00:55:34.530Z,1023.11
2022-08-12T00:55:43.917Z,1023.09
2022-08-12T00:55:53.346Z,1023.07
2022-08-12T00:56:02.848Z,1023.11
2022-08-12T00:56:12.292Z,1023.10
2022-08-12T00:56:21.768Z,1023.10
2022-08-12T00:56:31.174Z,1023.11
2022-08-12T00:56:40.572Z,1023.10
2022-08-12T00:56:49.998Z,1023.13
2022-08-12T00:56:59.401Z,1023.13
2022-08-12T00:57:08.847Z,1023.06
2022-08-12T00:57:18.261Z,1023.13
2022-08-12T00:57:27.687Z,1023.10
2022-08-12T00:57:37.462Z,1023.05
2022-08-12T00:57:46.626Z,1023.08
2022-08-12T00:57:56.057Z,1023.09
2022-08-12T00:58:14.882Z,1023.07
2022-08-12T00:58:24.312Z,1023.09
2022-08-12T00:58:33.734Z,1023.11
2022-08-12T00:58:43.190Z,1023.05
2022-08-12T00:58:52.583Z,1023.06
2022-08-12T00:59:02.046Z,1023.08
2022-08-12T00:59:11.498Z,1023.15
2022-08-12T00:59:20.890Z,1023.06
2022-08-12T00:59:30.324Z,1022.99
2022-08-12T00:59:39.738Z,1023.13
2022-08-12T00:59:49.163Z,1023.02
2022-08-12T00:59:58.561Z,1023.02
2022-08-12T01:00:07.957Z,1023.04
2022-08-12T01:00:17.404Z,1023.06
2022-08-12T01:00:29.409Z,1022.97
2022-08-12T01:00:38.831Z,1023.03
2022-08-12T01:00:48.250Z,1022.98
2022-08-12T01:00:57.753Z,1023.02
2022-08-12T01:01:07.219Z,1023.01
2022-08-12T01:01:16.683Z,1022.95
2022-08-12T01:01:26.068Z,1023.04
2022-08-12T01:02:10.503Z,1023.05
2022-08-12T01:02:10.801Z,1023.05
2022-08-12T01:02:12.272Z,1023.02
2022-08-12T01:02:13.163Z,1023.00
2022-08-12T01:02:22.547Z,1023.06
2022-08-12T01:02:32.016Z,1022.96
2022-08-12T01:02:41.568Z,1023.05
2022-08-12T01:02:50.726Z,1023.10
2022-08-12T01:03:00.123Z,1023.05
2022-08-12T01:03:09.625Z,1023.05
2022-08-12T01:03:19.031Z,1023.04
2022-08-12T01:03:28.448Z,1023.07
2022-08-12T01:03:37.938Z,1023.09
2022-08-12T01:03:47.339Z,1023.02
2022-08-12T01:03:56.768Z,1023.06
2022-08-12T01:04:06.275Z,1023.11
2022-08-12T01:04:25.162Z,1023.01
2022-08-12T01:04:34.600Z,1022.97
2022-08-12T01:04:44.085Z,1023.07
2022-08-12T01:04:53.505Z,1023.11
2022-08-12T01:05:02.933Z,1023.06
2022-08-12T01:05:12.357Z,1023.08
2022-08-12T01:05:21.756Z,1023.07
2022-08-12T01:05:31.178Z,1023.08
2022-08-12T01:05:40.566Z,1023.11
2022-08-12T01:05:49.998Z,1023.11
2022-08-12T01:05:59.448Z,1023.07
2022-08-12T01:06:08.873Z,1023.05
2022-08-12T01:06:18.289Z,1023.08
2022-08-12T01:06:27.711Z,1023.11
2022-08-12T01:06:37.133Z,1023.09
2022-08-12T01:06:46.583Z,1022.95
2022-08-12T01:06:55.970Z,1023.09
2022-08-12T01:07:14.857Z,1023.00
2022-08-12T01:07:24.276Z,1023.04
2022-08-12T01:07:33.670Z,1023.00
2022-08-12T01:07:43.172Z,1023.05
2022-08-12T01:07:52.631Z,1023.02
2022-08-12T01:08:02.060Z,1023.05
2022-08-12T01:08:11.494Z,1023.02
2022-08-12T01:08:20.955Z,1023.02
2022-08-12T01:08:30.389Z,1023.03
2022-08-12T01:08:39.851Z,1023.04
2022-08-12T01:08:49.250Z,1023.05
2022-08-12T01:08:58.672Z,1023.06
2022-08-12T01:09:08.119Z,1023.06
2022-08-12T01:09:17.555Z,1023.01
2022-08-12T01:09:27.041Z,1023.05
2022-08-12T01:09:36.457Z,1023.04
2022-08-12T01:09:45.903Z,1023.00
2022-08-12T01:10:04.906Z,1023.02
2022-08-12T01:10:14.360Z,1022.99
2022-08-12T01:10:27.548Z,1023.08
2022-08-12T01:10:33.429Z,1022.99
2022-08-12T01:10:42.685Z,1023.05
2022-08-12T01:10:52.118Z,1023.03
2022-08-12T01:11:01.536Z,1023.00
2022-08-12T01:11:10.934Z,1023.06
2022-08-12T01:11:20.398Z,1023.03
2022-08-12T01:11:29.816Z,1022.98
2022-08-12T01:11:39.255Z,1023.06
2022-08-12T01:11:48.696Z,1023.04
2022-08-12T01:11:58.235Z,1023.07
2022-08-12T01:12:07.678Z,1023.05
2022-08-12T01:12:17.102Z,1023.08
2022-08-12T01:12:26.507Z,1023.02
2022-08-12T01:12:35.918Z,1023.03
2022-08-12T01:12:54.780Z,1022.97
2022-08-12T01:13:18.315Z,1022.98
2022-08-12T01:13:19.873Z,1023.04
2022-08-12T01:13:23.022Z,1023.04
2022-08-12T01:13:32.490Z,1023.03
2022-08-12T01:13:41.911Z,1023.04
2022-08-12T01:13:51.346Z,1022.98
2022-08-12T01:14:00.767Z,1022.99
2022-08-12T01:14:10.251Z,1023.00
2022-08-12T01:14:19.648Z,1022.98
2022-08-12T01:14:29.035Z,1022.99
2022-08-12T01:14:38.463Z,1023.05
2022-08-12T01:14:47.922Z,1022.96
2022-08-12T01:14:57.361Z,1022.97
2022-08-12T01:15:06.780Z,1023.01
2022-08-12T01:15:16.190Z,1023.04
2022-08-12T01:15:35.152Z,1023.04
2022-08-12T01:15:44.550Z,1023.04
2022-08-12T01:15:53.987Z,1023.01
2022-08-12T01:16:03.408Z,1023.07
2022-08-12T01:16:12.875Z,1023.05
2022-08-12T01:16:22.304Z,1023.07
2022-08-12T01:16:31.771Z,1023.02
2022-08-12T01:16:41.221Z,1023.16
2022-08-12T01:16:50.635Z,1023.10
2022-08-12T01:17:00.099Z,1023.09
2022-08-12T01:17:09.518Z,1023.08
2022-08-12T01:17:18.938Z,1023.04
2022-08-12T01:17:28.373Z,1023.03
2022-08-12T01:17:37.806Z,1023.04
2022-08-12T01:17:47.270Z,1023.04
2022-08-12T01:17:56.818Z,1023.04
2022-08-12T01:18:06.294Z,1023.06
2022-08-12T01:18:25.128Z,1023.03
2022-08-12T01:18:34.581Z,1023.00
2022-08-12T01:18:44.052Z,1023.04
2022-08-12T01:18:53.519Z,1023.05
2022-08-12T01:19:02.948Z,1022.97
2022-08-12T01:19:12.365Z,1023.01
2022-08-12T01:19:22.134Z,1023.03
2022-08-12T01:19:31.227Z,1023.06
2022-08-12T01:19:40.714Z,1023.08
2022-08-12T01:19:50.120Z,1023.02
2022-08-12T01:19:59.530Z,1023.07
2022-08-12T01:20:09.040Z,1023.02
2022-08-12T01:20:18.475Z,1023.00
2022-08-12T01:20:27.956Z,1023.02
2022-08-12T01:20:37.360Z,1023.01
2022-08-12T01:20:46.796Z,1023.02
2022-08-12T01:20:56.268Z,1023.02
2022-08-12T01:21:15.098Z,1023.01
2022-08-12T01:21:24.534Z,1023.02
2022-08-12T01:21:33.962Z,1022.99
2022-08-12T01:21:43.346Z,1023.01
2022-08-12T01:21:52.785Z,1023.01
2022-08-12T01:22:02.211Z,1023.05
2022-08-12T01:22:11.629Z,1023.02
2022-08-12T01:22:21.098Z,1023.06
2022-08-12T01:22:30.626Z,1023.00
2022-08-12T01:22:40.121Z,1023.03
2022-08-12T01:22:49.381Z,1023.05
2022-08-12T01:22:58.822Z,1023.06
2022-08-12T01:23:08.239Z,1023.08
2022-08-12T01:23:17.664Z,1023.01
2022-08-12T01:23:27.103Z,1023.02
2022-08-12T01:23:36.597Z,1023.03
2022-08-12T01:23:45.978Z,1023.02
2022-08-12T01:24:29.671Z,1022.97
2022-08-12T01:24:30.266Z,1023.04
2022-08-12T01:24:30.917Z,1023.02
2022-08-12T01:24:33.207Z,1023.07
2022-08-12T01:24:42.642Z,1022.98
2022-08-12T01:24:52.086Z,1023.03
2022-08-12T01:25:01.549Z,1022.97
2022-08-12T01:25:10.953Z,1023.01
2022-08-12T01:25:20.358Z,1023.02
2022-08-12T01:25:29.750Z,1022.99
2022-08-12T01:25:55.508Z,1023.06
2022-08-12T01:25:56.287Z,1023.02
2022-08-12T01:25:58.116Z,1023.00
2022-08-12T01:26:07.561Z,1023.01
2022-08-12T01:26:16.980Z,1023.03
2022-08-12T01:26:26.410Z,1023.03
2022-08-12T01:26:35.865Z,1022.98
2022-08-12T01:26:54.696Z,1022.96
2022-08-12T01:27:07.547Z,1023.00
2022-08-12T01:27:13.499Z,1023.01
2022-08-12T01:27:22.917Z,1023.03
2022-08-12T01:27:32.344Z,1023.08
2022-08-12T01:27:41.796Z,1023.05
2022-08-12T01:27:51.224Z,1023.04
2022-08-12T01:28:00.674Z,1023.02
2022-08-12T01:28:10.140Z,1023.04
2022-08-12T01:28:19.589Z,1023.04
2022-08-12T01:28:29.026Z,1022.98
2022-08-12T01:28:38.458Z,1023.00
2022-08-12T01:28:47.946Z,1023.10
2022-08-12T01:28:58.478Z,1023.04
2022-08-12T01:29:06.823Z,1023.06
2022-08-12T01:29:16.284Z,1023.02
2022-08-12T01:29:35.164Z,1023.10
2022-08-12T01:29:44.582Z,1023.02
2022-08-12T01:29:54.057Z,1023.01
2022-08-12T01:30:03.502Z,1023.05
2022-08-12T01:30:12.918Z,1023.00
2022-08-12T01:30:22.396Z,1023.07
2022-08-12T01:30:31.833Z,1023.02
2022-08-12T01:30:41.279Z,1023.08
2022-08-12T01:30:50.695Z,1023.02
2022-08-12T01:31:00.112Z,1023.12
2022-08-12T01:31:11.294Z,1023.06
2022-08-12T01:31:19.026Z,1022.99
2022-08-12T01:31:28.466Z,1023.04
2022-08-12T01:31:37.973Z,1023.05
2022-08-12T01:31:47.452Z,1023.05
2022-08-12T01:31:56.883Z,1023.02
2022-08-12T01:32:06.539Z,1023.11
2022-08-12T01:32:25.226Z,1023.07
2022-08-12T01:32:34.748Z,1023.05
2022-08-12T01:32:44.129Z,1023.06
2022-08-12T01:32:53.556Z,1023.03
2022-08-12T01:33:02.994Z,1023.03
2022-08-12T01:33:12.420Z,1023.03
2022-08-12T01:33:21.850Z,1023.12
2022-08-12T01:33:31.258Z,1023.04
2022-08-12T01:33:40.704Z,1023.06
2022-08-12T01:33:50.108Z,1023.05
2022-08-12T01:33:59.670Z,1023.05
2022-08-12T01:34:28.747Z,1023.13
2022-08-12T01:34:35.371Z,1023.04
2022-08-12T01:34:35.451Z,1023.04
2022-08-12T01:34:37.889Z,1023.06
2022-08-12T01:34:46.799Z,1022.99
2022-08-12T01:34:56.257Z,1023.05
2022-08-12T01:35:15.069Z,1023.03
2022-08-12T01:35:24.528Z,1023.00
2022-08-12T01:35:33.988Z,1023.04
2022-08-12T01:35:43.391Z,1022.98
2022-08-12T01:35:57.827Z,1022.97
2022-08-12T01:36:08.410Z,1022.96
2022-08-12T01:36:11.743Z,1023.04
2022-08-12T01:36:21.185Z,1023.04
2022-08-12T01:36:30.583Z,1023.00
2022-08-12T01:36:39.993Z,1023.00
2022-08-12T01:36:49.419Z,1023.04
2022-08-12T01:36:58.885Z,1023.04
2022-08-12T01:37:08.318Z,1023.04
2022-08-12T01:37:17.730Z,1023.01
2022-08-12T01:37:27.214Z,1023.01
2022-08-12T01:37:36.631Z,1022.98
2022-08-12T01:37:46.021Z,1023.00
2022-08-12T01:38:04.914Z,1023.00
2022-08-12T01:38:14.314Z,1023.02
2022-08-12T01:38:29.556Z,1022.94
2022-08-12T01:38:33.109Z,1023.05
2022-08-12T01:38:42.584Z,1022.97
2022-08-12T01:38:52.004Z,1022.96
2022-08-12T01:39:01.442Z,1022.95
2022-08-12T01:39:10.959Z,1022.94
2022-08-12T01:39:20.409Z,1022.97
2022-08-12T01:39:29.852Z,1022.99
2022-08-12T01:39:39.278Z,1022.99
2022-08-12T01:40:33.787Z,1023.04
2022-08-12T01:40:33.930Z,1022.93
2022-08-12T01:40:34.533Z,1022.99
2022-08-12T01:40:34.843Z,1022.96
2022-08-12T01:40:36.990Z,1022.97
2022-08-12T01:40:39.749Z,1022.98
2022-08-12T01:40:47.471Z,1022.98
2022-08-12T01:40:56.975Z,1022.99
2022-08-12T01:41:06.287Z,1022.96
2022-08-12T01:41:25.114Z,1022.93
2022-08-12T01:41:34.512Z,1022.92
2022-08-12T01:41:43.930Z,1022.91
2022-08-12T01:41:53.758Z,1022.98
2022-08-12T01:42:02.835Z,1022.97
2022-08-12T01:42:12.250Z,1022.97
2022-08-12T01:42:21.696Z,1022.92
2022-08-12T01:42:31.142Z,1022.97
2022-08-12T01:42:40.841Z,1022.96
2022-08-12T01:42:49.958Z,1022.96
2022-08-12T01:42:59.397Z,1023.01
2022-08-12T01:43:08.846Z,1022.95
2022-08-12T01:43:18.277Z,1022.90
2022-08-12T01:43:27.685Z,1022.95
2022-08-12T01:43:37.110Z,1022.95
2022-08-12T01:43:46.624Z,1022.99
2022-08-12T01:43:56.099Z,1022.99
2022-08-12T01:44:14.956Z,1023.07
2022-08-12T01:44:24.374Z,1023.02
2022-08-12T01:44:33.783Z,1022.99
2022-08-12T01:44:43.210Z,1022.89
2022-08-12T01:44:52.606Z,1022.93
2022-08-12T01:45:02.042Z,1022.95
2022-08-12T01:45:11.545Z,1022.96
2022-08-12T01:45:20.977Z,1022.93
2022-08-12T01:45:43.033Z,1023.02
2022-08-12T01:45:43.061Z,1023.00
2022-08-12T01:45:49.359Z,1023.00
2022-08-12T01:45:58.827Z,1022.97
2022-08-12T01:46:08.258Z,1023.00
2022-08-12T01:46:17.739Z,1022.99
2022-08-12T01:46:27.200Z,1022.96
2022-08-12T01:46:36.618Z,1022.96
2022-08-12T01:46:46.074Z,1022.96
2022-08-12T01:47:04.932Z,1022.93
2022-08-12T01:47:14.364Z,1022.93
2022-08-12T01:47:23.790Z,1022.90
2022-08-12T01:47:33.245Z,1022.95
2022-08-12T01:47:42.665Z,1022.94
2022-08-12T01:47:52.103Z,1022.97
2022-08-12T01:48:01.548Z,1022.94
2022-08-12T01:48:10.982Z,1022.97
2022-08-12T01:48:20.404Z,1022.99
2022-08-12T01:48:29.828Z,1022.94
2022-08-12T01:48:39.266Z,1022.94
2022-08-12T01:48:48.715Z,1022.99
2022-08-12T01:48:58.146Z,1022.92
2022-08-12T01:49:07.552Z,1022.93
2022-08-12T01:49:16.941Z,1022.91
2022-08-12T01:49:26.368Z,1022.97
2022-08-12T01:49:45.352Z,1022.97
2022-08-12T01:49:54.735Z,1022.94
2022-08-12T01:50:04.169Z,1022.89
2022-08-12T01:50:13.640Z,1022.86
2022-08-12T01:50:23.063Z,1022.94
2022-08-12T01:50:32.490Z,1022.97
2022-08-12T01:50:43.091Z,1022.92
2022-08-12T01:50:51.361Z,1022.99
2022-08-12T01:51:01.394Z,1022.94
2022-08-12T01:51:10.260Z,1022.94
2022-08-12T01:51:40.791Z,1022.94
2022-08-12T01:52:14.691Z,1022.92
2022-08-12T01:52:20.171Z,1023.02
2022-08-12T01:52:20.289Z,1022.92
2022-08-12T01:52:20.474Z,1022.91
2022-08-12T01:52:20.856Z,1022.95
2022-08-12T01:52:22.417Z,1022.98
2022-08-12T01:52:35.216Z,1022.98
2022-08-12T01:52:44.587Z,1022.96
2022-08-12T01:52:54.025Z,1022.88
2022-08-12T01:53:03.425Z,1022.95
2022-08-12T01:53:12.904Z,1022.90
2022-08-12T01:53:22.325Z,1022.96
2022-08-12T01:53:31.744Z,1023.02
2022-08-12T01:53:50.820Z,1022.93
2022-08-12T01:53:51.158Z,1022.97
2022-08-12T01:54:00.073Z,1022.97
2022-08-12T01:54:09.477Z,1022.94
2022-08-12T01:54:18.879Z,1022.98
2022-08-12T01:54:28.339Z,1022.96
2022-08-12T01:54:37.751Z,1022.97
2022-08-12T01:54:47.224Z,1022.96
2022-08-12T01:54:56.670Z,1022.96
2022-08-12T01:55:06.126Z,1022.99
2022-08-12T01:55:25.002Z,1022.98
2022-08-12T01:55:34.420Z,1022.90
2022-08-12T01:55:43.841Z,1022.93
2022-08-12T01:55:53.267Z,1022.93
2022-08-12T01:56:02.693Z,1023.00
2022-08-12T01:56:12.120Z,1022.93
2022-08-12T01:56:21.540Z,1022.95
2022-08-12T01:56:30.957Z,1022.90
2022-08-12T01:56:40.374Z,1022.87
2022-08-12T01:56:49.787Z,1022.89
2022-08-12T01:56:59.210Z,1022.88
2022-08-12T01:57:08.623Z,1022.88
2022-08-12T01:57:57.913Z,1022.92
2022-08-12T01:57:58.405Z,1022.87
2022-08-12T01:57:58.524Z,1022.89
2022-08-12T01:57:59.170Z,1022.89
2022-08-12T01:58:05.201Z,1022.91
2022-08-12T01:58:14.606Z,1022.93
2022-08-12T01:58:24.049Z,1022.98
2022-08-12T01:58:33.470Z,1022.87
2022-08-12T01:58:42.925Z,1022.89
2022-08-12T01:58:52.906Z,1022.89
2022-08-12T01:59:02.317Z,1022.86
2022-08-12T01:59:12.218Z,1022.91
2022-08-12T01:59:21.148Z,1022.93
2022-08-12T01:59:30.570Z,1022.92
2022-08-12T01:59:40.028Z,1022.86
2022-08-12T01:59:49.449Z,1022.88
2022-08-12T01:59:58.885Z,1022.83
2022-08-12T02:00:08.446Z,1022.88
2022-08-12T02:00:18.139Z,1022.93
2022-08-12T02:00:35.968Z,1022.95
2022-08-12T02:00:36.980Z,1022.86
2022-08-12T02:00:55.206Z,1022.95